Time;durP1;ratioP1;P1;durP2;ratioP2;P2;SDS_P1;SDS_P2;PMS_P1;PMS_P2;Temp;Humidity;BMP_temperature;BMP_pressure;BME280_temperature;BME280_humidity;BME280_pressure;Samples;Min_cycle;Max_cycle;Signal;HPM_P1;HPM_P2
2022/06/11 00:01:44;;;;;;;25.62;18.98;;;;;;;19.17;50.09;99298.23;1748665;82;21002;-42
2022/06/11 00:04:15;;;;;;;27.67;19.48;;;;;;;19.18;50.19;99288.80;1748593;82;21183;-42
2022/06/11 00:06:49;;;;;;;34.45;19.92;;;;;;;19.18;50.19;99291.55;1742176;82;21038;-42
2022/06/11 00:09:17;;;;;;;29.98;20.37;;;;;;;19.18;50.03;99294.89;1749134;81;21579;-42
2022/06/11 00:11:45;;;;;;;27.40;19.65;;;;;;;19.17;50.25;99291.99;1749307;82;21797;-42
2022/06/11 00:14:12;;;;;;;28.05;19.70;;;;;;;19.16;50.37;99288.47;1749368;82;21046;-42
2022/06/11 00:16:40;;;;;;;26.20;19.02;;;;;;;19.14;50.21;99293.59;1749422;82;23191;-42
2022/06/11 00:19:08;;;;;;;30.68;20.45;;;;;;;19.13;50.38;99290.66;1749302;82;20947;-42
2022/06/11 00:21:38;;;;;;;29.23;20.90;;;;;;;19.10;50.56;99290.13;1749383;82;21089;-42
2022/06/11 00:24:06;;;;;;;27.73;19.13;;;;;;;19.10;50.72;99290.13;1720099;82;21027;-41
2022/06/11 00:26:36;;;;;;;28.92;20.72;;;;;;;19.06;50.96;99295.69;1749526;82;21055;-42
2022/06/11 00:29:04;;;;;;;27.82;19.30;;;;;;;19.02;50.96;99292.23;1749444;82;23168;-42
2022/06/11 00:31:32;;;;;;;26.25;19.30;;;;;;;19.00;51.08;99289.70;1745248;82;21042;-42
2022/06/11 00:33:59;;;;;;;27.27;19.65;;;;;;;18.98;51.02;99294.23;1749437;82;21033;-42
2022/06/11 00:36:26;;;;;;;29.87;19.35;;;;;;;18.96;51.14;99293.11;1749776;82;21086;-42
2022/06/11 00:38:54;;;;;;;28.62;20.00;;;;;;;18.92;51.46;99293.17;1749224;82;20998;-42
2022/06/11 00:41:23;;;;;;;24.60;19.20;;;;;;;18.91;51.51;99296.33;1749376;82;21306;-42
2022/06/11 00:43:52;;;;;;;27.87;19.37;;;;;;;18.90;51.72;99296.14;1749496;82;21051;-42
2022/06/11 00:46:49;;;;;;;27.87;19.27;;;;;;;18.89;51.56;99313.81;1749460;82;21062;-42
2022/06/11 00:49:40;;;;;;;27.15;19.17;;;;;;;18.85;51.59;99293.27;1689216;84;21056;-42
2022/06/11 00:52:27;;;;;;;25.77;18.80;;;;;;;18.81;51.57;99300.80;1689194;84;21575;-42
2022/06/11 00:55:14;;;;;;;24.82;19.60;;;;;;;18.77;51.89;99306.95;1732002;82;21354;-42
2022/06/11 00:57:58;;;;;;;25.50;19.17;;;;;;;18.75;51.70;99304.42;1749315;82;21010;-42
2022/06/11 01:00:33;;;;;;;27.15;19.48;;;;;;;18.73;51.52;99304.85;1749335;82;21094;-42
2022/06/11 01:03:01;;;;;;;28.38;19.45;;;;;;;18.71;51.32;99306.45;1748966;82;21003;-42
2022/06/11 01:05:31;;;;;;;24.32;19.35;;;;;;;18.70;51.64;99313.13;1749401;82;21560;-42
2022/06/11 01:08:30;;;;;;;26.20;19.55;;;;;;;18.67;51.46;99312.00;1748793;82;21268;-42
2022/06/11 01:11:09;;;;;;;27.52;19.52;;;;;;;18.66;51.57;99312.59;1748532;82;21037;-42
2022/06/11 01:14:26;;;;;;;27.50;19.73;;;;;;;18.61;51.65;99314.42;1748790;82;20987;-42
2022/06/11 01:17:19;;;;;;;27.77;18.92;;;;;;;18.58;51.72;99313.11;1748670;82;21525;-41
2022/06/11 01:20:01;;;;;;;29.42;18.73;;;;;;;18.51;51.90;99310.42;1743390;82;21514;-41
2022/06/11 01:22:52;;;;;;;24.95;19.50;;;;;;;18.47;51.75;99319.31;1748684;82;21236;-42
2022/06/11 01:25:51;;;;;;;27.30;19.30;;;;;;;18.43;51.99;99319.37;1748652;82;21030;-42
2022/06/11 01:28:55;;;;;;;27.48;19.35;;;;;;;18.40;52.31;99319.39;1748802;82;21054;-42
2022/06/11 01:31:30;;;;;;;31.05;19.52;;;;;;;18.35;52.42;99317.14;1748435;82;21000;-42
2022/06/11 01:34:09;;;;;;;25.35;19.25;;;;;;;18.29;52.54;99322.30;1748656;82;21018;-42
2022/06/11 01:36:41;;;;;;;31.25;19.20;;;;;;;18.29;52.67;99327.02;1748371;82;23212;-41
2022/06/11 01:39:22;;;;;;;31.52;18.37;;;;;;;18.27;52.67;99323.30;1748426;82;20896;-42
2022/06/11 01:41:55;;;;;;;26.37;18.77;;;;;;;18.25;52.68;99322.92;1715223;82;21596;-42
2022/06/11 01:44:30;;;;;;;27.73;18.70;;;;;;;18.23;52.69;99324.72;1748445;82;21534;-42
2022/06/11 01:46:58;;;;;;;28.92;18.55;;;;;;;18.22;52.69;99327.86;1747651;82;21505;-42
2022/06/11 01:49:33;;;;;;;22.75;18.42;;;;;;;18.21;52.89;99329.05;1748607;82;21092;-42
2022/06/11 01:52:38;;;;;;;24.23;18.45;;;;;;;18.21;52.91;99326.30;1748524;82;20951;-42
2022/06/11 01:55:26;;;;;;;26.07;18.92;;;;;;;18.20;53.00;99327.52;1748165;82;21900;-41
2022/06/11 01:58:20;;;;;;;24.80;17.85;;;;;;;18.17;53.02;99329.69;1748249;82;20975;-41
2022/06/11 02:01:32;;;;;;;26.60;18.57;;;;;;;18.15;53.13;99330.72;1748082;82;21043;-42
2022/06/11 02:04:38;;;;;;;24.82;17.80;;;;;;;18.13;52.99;99330.34;1748711;82;21780;-42
2022/06/11 02:07:20;;;;;;;23.70;17.75;;;;;;;18.10;52.97;99333.91;1748359;82;20991;-42
2022/06/11 02:10:08;;;;;;;26.17;18.12;;;;;;;18.07;53.13;99329.22;1749352;82;21023;-41
2022/06/11 02:12:55;;;;;;;25.10;18.00;;;;;;;18.07;53.17;99329.22;1748774;82;20974;-42
2022/06/11 02:15:45;;;;;;;24.35;18.12;;;;;;;18.04;53.21;99333.58;1748979;82;20995;-42
2022/06/11 02:18:18;;;;;;;25.17;17.52;;;;;;;18.02;53.40;99332.42;1749311;82;21256;-41
2022/06/11 02:20:58;;;;;;;27.93;18.23;;;;;;;18.01;53.65;99341.86;1749367;81;21600;-42
2022/06/11 02:23:30;;;;;;;31.85;18.32;;;;;;;18.00;53.61;99334.81;1749408;82;21521;-42
2022/06/11 02:26:00;;;;;;;28.47;18.48;;;;;;;18.02;53.82;99340.65;1749353;81;21008;-42
2022/06/11 02:28:29;;;;;;;25.27;17.90;;;;;;;18.01;53.74;99333.01;1751274;82;21066;-41
2022/06/11 02:30:58;;;;;;;;;;;;;;;18.03;53.44;99338.09;1753997;82;21100;-42
2022/06/11 02:33:25;;;;;;;28.65;17.77;;;;;;;18.05;53.71;99332.98;1750945;81;20241;-42
2022/06/11 02:36:12;;;;;;;28.38;17.73;;;;;;;17.98;53.91;99333.06;1750868;82;20914;-42
2022/06/11 02:38:41;;;;;;;25.27;17.25;;;;;;;18.03;53.88;99338.09;1750995;82;21606;-42
2022/06/11 02:41:15;;;;;;;23.32;16.93;;;;;;;18.08;53.53;99341.17;1751075;82;21543;-42
2022/06/11 02:43:44;;;;;;;26.80;17.20;;;;;;;18.13;53.34;99344.83;1750710;81;22120;-42
2022/06/11 02:48:58;;;;;;;25.32;16.23;;;;;;;18.24;53.43;99346.08;1750884;82;21029;-42
2022/06/11 02:51:26;;;;;;;21.85;16.37;;;;;;;18.29;53.31;99353.86;1750989;82;21582;-42
2022/06/11 02:53:54;;;;;;;25.35;16.75;;;;;;;18.34;53.98;99344.39;1751075;82;21010;-42
2022/06/11 02:56:21;;;;;;;23.00;16.62;;;;;;;18.39;54.10;99348.84;1750831;82;21917;-42
2022/06/11 02:58:48;;;;;;;22.95;16.25;;;;;;;18.46;54.17;99351.47;1750648;82;21453;-42
2022/06/11 03:01:16;;;;;;;21.33;15.70;;;;;;;18.52;54.18;99345.71;1750698;82;21088;-42
2022/06/11 03:03:43;;;;;;;29.67;16.82;;;;;;;18.58;54.38;99341.35;1751214;82;21037;-42
2022/06/11 03:06:12;;;;;;;34.13;16.20;;;;;;;18.64;54.70;99348.51;1750697;82;20965;-42
2022/06/11 03:08:41;;;;;;;34.35;15.85;;;;;;;18.71;55.09;99347.64;1772430;80;21227;-42
2022/06/11 03:11:08;;;;;;;32.10;16.65;;;;;;;18.78;55.39;99350.30;1781688;80;20988;-42
2022/06/11 03:13:35;;;;;;;25.82;15.93;;;;;;;18.84;55.48;99352.73;1781735;80;21524;-42
2022/06/11 03:16:04;;;;;;;23.07;15.32;;;;;;;18.91;55.62;99352.65;1781774;80;21070;-42
2022/06/11 03:18:31;;;;;;;24.70;15.30;;;;;;;18.98;55.95;99351.15;1782031;80;20968;-42
2022/06/11 03:22:53;;;;;;;21.80;14.15;;;;;;;19.15;56.40;99347.36;1782040;79;22772;-42
2022/06/11 03:25:20;;;;;;;27.10;15.25;;;;;;;19.13;56.57;99351.11;1755118;81;21021;-42
2022/06/11 03:27:50;;;;;;;29.48;15.38;;;;;;;19.23;56.41;99350.77;1755242;81;21644;-42
2022/06/11 03:30:18;;;;;;;22.27;14.45;;;;;;;19.31;56.05;99352.22;1755046;81;21001;-42
2022/06/11 03:32:47;;;;;;;24.92;15.30;;;;;;;19.38;56.22;99355.61;1755211;81;20979;-42
2022/06/11 03:35:14;;;;;;;20.68;14.15;;;;;;;19.46;55.58;99354.31;1755197;81;21449;-42
2022/06/11 03:37:42;;;;;;;23.47;14.80;;;;;;;19.55;55.73;99359.89;1755468;81;21752;-42
2022/06/11 03:40:10;;;;;;;25.35;14.75;;;;;;;19.63;56.04;99355.22;1755302;81;21080;-42
2022/06/11 03:42:37;;;;;;;21.25;14.90;;;;;;;19.73;56.25;99359.75;1754906;81;20970;-42
2022/06/11 03:45:06;;;;;;;28.32;14.87;;;;;;;19.83;56.22;99359.38;1754909;81;21029;-42
2022/06/11 03:47:36;;;;;;;22.73;13.90;;;;;;;19.92;56.24;99363.72;1755559;81;21043;-42
2022/06/11 03:50:05;;;;;;;16.37;12.67;;;;;;;20.00;56.64;99367.88;1755181;81;21027;-42
2022/06/11 03:52:32;;;;;;;;;;;;;;;20.08;56.27;99365.19;1757614;81;21732;-42
2022/06/11 03:55:02;;;;;;;18.82;12.82;;;;;;;20.18;56.21;99364.80;1754965;81;20129;-42
2022/06/11 03:57:30;;;;;;;20.60;13.53;;;;;;;20.18;55.56;99364.20;1755026;81;20962;-42
2022/06/11 03:59:58;;;;;;;18.82;12.82;;;;;;;20.32;55.31;99366.70;1754832;81;21513;-42
2022/06/11 04:02:26;;;;;;;19.05;13.80;;;;;;;20.45;55.22;99366.81;1755137;81;21002;-42
2022/06/11 04:04:54;;;;;;;20.15;14.38;;;;;;;20.56;54.93;99370.73;1754887;81;21294;-42
2022/06/11 04:07:21;;;;;;;17.95;13.95;;;;;;;20.66;54.03;99363.61;1755036;81;20943;-42
2022/06/11 04:09:49;;;;;;;20.45;14.73;;;;;;;20.79;52.95;99367.84;1755041;81;21079;-42
2022/06/11 04:12:18;;;;;;;19.12;13.72;;;;;;;20.92;52.40;99374.23;1754916;81;20931;-42
2022/06/11 04:14:48;;;;;;;20.52;15.08;;;;;;;21.03;51.57;99373.99;1754954;81;21018;-42
2022/06/11 04:17:26;;;;;;;23.12;14.85;;;;;;;21.15;50.47;99374.73;1755309;81;21821;-42
2022/06/11 04:19:54;;;;;;;20.08;14.93;;;;;;;21.26;49.98;99369.72;1755129;81;21545;-42
2022/06/11 04:22:21;;;;;;;23.00;15.30;;;;;;;21.38;49.44;99373.18;1746314;81;21534;-42
2022/06/11 04:24:49;;;;;;;18.02;13.88;;;;;;;21.50;49.45;99370.31;1741972;82;20971;-42
2022/06/11 04:27:18;;;;;;;20.25;15.18;;;;;;;21.61;49.49;99374.96;1742212;82;21003;-42
2022/06/11 04:29:50;;;;;;;20.08;14.85;;;;;;;21.73;49.42;99373.48;1742424;82;21127;-42
2022/06/11 04:32:17;;;;;;;17.48;14.18;;;;;;;21.82;49.38;99368.90;1741872;82;21023;-42
2022/06/11 04:34:46;;;;;;;15.80;12.63;;;;;;;21.91;49.38;99371.03;1741651;82;20916;-42
2022/06/11 04:37:13;;;;;;;18.87;13.62;;;;;;;22.02;49.39;99379.23;1741804;82;21029;-42
2022/06/11 04:39:44;;;;;;;19.35;13.03;;;;;;;22.14;48.92;99377.70;1741626;82;21555;-42
2022/06/11 04:42:12;;;;;;;15.63;12.25;;;;;;;22.25;48.34;99376.03;1741243;82;21501;-42
2022/06/11 04:44:40;;;;;;;18.48;12.00;;;;;;;22.34;47.46;99379.70;1741222;82;21543;-42
2022/06/11 04:47:08;;;;;;;15.72;12.10;;;;;;;22.46;47.11;99379.58;1741251;82;21036;-43
2022/06/11 04:49:35;;;;;;;14.87;11.57;;;;;;;22.56;46.75;99378.47;1741137;82;22163;-42
2022/06/11 04:52:05;;;;;;;15.63;10.98;;;;;;;22.68;46.37;99376.34;1741288;82;21581;-42
2022/06/11 04:54:33;;;;;;;15.13;11.40;;;;;;;22.78;46.25;99376.66;1741678;82;21132;-42
2022/06/11 04:57:00;;;;;;;15.88;11.00;;;;;;;22.88;46.74;99378.33;1741287;82;20928;-42
2022/06/11 04:59:27;;;;;;;14.00;10.88;;;;;;;23.00;46.58;99377.36;1741344;82;21014;-42
2022/06/11 05:01:54;;;;;;;16.02;11.43;;;;;;;23.13;46.33;99382.30;1741293;82;21099;-42
2022/06/11 05:04:22;;;;;;;15.85;10.82;;;;;;;23.23;46.44;99377.05;1741353;82;21086;-42
2022/06/11 05:06:50;;;;;;;12.88;10.48;;;;;;;23.34;46.73;99382.38;1741651;82;21550;-42
2022/06/11 05:09:18;;;;;;;13.48;9.70;;;;;;;23.47;46.19;99386.55;1741437;82;21645;-42
2022/06/11 05:11:46;;;;;;;13.40;9.50;;;;;;;23.57;44.95;99386.03;1741482;82;20955;-42
2022/06/11 05:14:14;;;;;;;12.15;9.78;;;;;;;23.70;44.46;99382.00;1741596;82;21040;-42
2022/06/11 05:16:43;;;;;;;11.60;9.40;;;;;;;23.82;43.83;99388.09;1741640;82;21505;-42
2022/06/11 05:19:13;;;;;;;10.78;8.65;;;;;;;23.97;44.03;99386.22;1741664;82;20979;-42
2022/06/11 05:21:41;;;;;;;12.55;8.23;;;;;;;24.09;43.56;99384.02;1743432;82;21592;-43
2022/06/11 05:24:08;;;;;;;11.08;8.35;;;;;;;24.20;42.12;99385.22;1749254;82;21015;-42
2022/06/11 05:26:40;;;;;;;12.28;7.87;;;;;;;24.33;41.37;99382.98;1749181;82;21101;-42
2022/06/11 05:29:08;;;;;;;13.13;8.08;;;;;;;24.45;41.25;99382.13;1747483;82;21031;-42
2022/06/11 05:31:35;;;;;;;11.68;7.67;;;;;;;24.49;41.33;99378.63;1749197;82;21239;-42
2022/06/11 05:34:02;;;;;;;11.45;7.53;;;;;;;24.65;41.17;99381.16;1749252;82;20923;-42
2022/06/11 05:36:29;;;;;;;11.70;7.05;;;;;;;24.62;40.59;99360.69;1749497;82;21513;-42
2022/06/11 05:38:56;;;;;;;12.73;7.47;;;;;;;24.87;40.72;99381.94;1749370;82;21383;-42
2022/06/11 05:41:24;;;;;;;11.12;7.80;;;;;;;25.00;40.13;99387.37;1749291;82;21121;-42
2022/06/11 05:43:51;;;;;;;12.53;7.25;;;;;;;25.12;40.63;99386.50;1749172;82;21250;-42
2022/06/11 05:46:21;;;;;;;10.58;7.30;;;;;;;25.22;40.60;99385.31;1749023;82;21541;-42
2022/06/11 05:48:58;;;;;;;8.73;6.85;;;;;;;25.33;40.73;99386.23;1749389;82;22207;-43
2022/06/11 05:51:29;;;;;;;11.83;7.17;;;;;;;25.43;40.13;99386.41;1749292;82;21082;-42
2022/06/11 05:53:58;;;;;;;9.60;6.78;;;;;;;25.56;39.09;99387.72;1741524;82;20986;-43
2022/06/11 05:56:25;;;;;;;9.03;6.08;;;;;;;25.69;38.81;99382.80;1719517;83;21259;-42
2022/06/11 05:58:57;;;;;;;8.75;6.10;;;;;;;25.82;37.07;99382.02;1719455;83;21627;-43
2022/06/11 06:01:28;;;;;;;13.28;6.78;;;;;;;25.96;36.34;99385.58;1719546;83;21026;-43
2022/06/11 06:03:55;;;;;;;8.98;6.45;;;;;;;26.07;36.49;99381.72;1691458;83;21053;-43
2022/06/11 06:06:23;;;;;;;8.78;6.35;;;;;;;26.19;36.62;99386.33;1719468;83;21026;-43
2022/06/11 06:08:50;;;;;;;8.90;6.08;;;;;;;26.30;35.89;99384.50;1719528;83;21142;-42
2022/06/11 06:11:19;;;;;;;9.93;6.60;;;;;;;26.41;35.08;99382.02;1719393;83;20935;-43
2022/06/11 06:13:46;;;;;;;9.53;6.67;;;;;;;26.51;33.72;99377.21;1719381;83;21046;-43
2022/06/11 06:16:20;;;;;;;10.03;6.72;;;;;;;26.62;33.76;99382.45;1719283;83;21511;-43
2022/06/11 06:18:49;;;;;;;12.88;7.17;;;;;;;26.71;33.73;99381.02;1719546;83;21098;-43
2022/06/11 06:21:19;;;;;;;11.88;8.13;;;;;;;26.82;32.52;99383.28;1719289;83;21646;-43
2022/06/11 06:23:46;;;;;;;11.38;6.95;;;;;;;26.92;31.54;99379.88;1719332;83;21026;-42
2022/06/11 06:26:13;;;;;;;10.78;6.90;;;;;;;27.03;31.12;99380.92;1719271;83;21006;-43
2022/06/11 06:28:41;;;;;;;14.07;7.30;;;;;;;27.13;30.01;99375.46;1719384;83;21155;-43
2022/06/11 06:31:09;;;;;;;11.03;7.08;;;;;;;27.24;30.18;99375.72;1719349;83;21026;-43
2022/06/11 06:33:37;;;;;;;12.90;7.25;;;;;;;27.34;29.69;99377.06;1719934;83;21155;-43
2022/06/11 06:36:06;;;;;;;8.28;5.65;;;;;;;27.42;30.12;99380.41;1719335;83;21003;-43
2022/06/11 06:38:33;;;;;;;9.43;5.43;;;;;;;27.53;29.43;99376.50;1719854;83;21092;-43
2022/06/11 06:41:01;;;;;;;8.15;5.28;;;;;;;27.63;28.67;99374.42;1719652;83;21090;-43
2022/06/11 06:43:28;;;;;;;7.55;5.28;;;;;;;27.71;28.68;99383.18;1719795;83;21028;-43
2022/06/11 06:45:55;;;;;;;8.15;4.97;;;;;;;27.78;28.56;99381.44;1721155;83;21160;-43
2022/06/11 06:48:22;;;;;;;6.85;5.00;;;;;;;27.66;28.71;99349.17;1721198;83;21024;-43
2022/06/11 06:50:51;;;;;;;6.65;3.35;;;;;;;27.97;28.57;99384.22;1721050;83;21057;-42
2022/06/11 06:53:18;;;;;;;6.33;4.00;;;;;;;28.04;26.37;99381.05;1721248;83;20980;-43
2022/06/11 06:55:45;;;;;;;8.85;4.22;;;;;;;28.10;26.35;99379.92;1721298;83;21543;-43
2022/06/11 06:58:15;;;;;;;4.83;3.47;;;;;;;28.17;26.57;99380.21;1721027;83;21202;-43
2022/06/11 07:00:44;;;;;;;6.62;3.75;;;;;;;28.26;25.95;99380.74;1721223;83;21088;-43
2022/06/11 07:03:12;;;;;;;6.33;3.70;;;;;;;28.34;26.47;99378.48;1721141;83;20993;-43
2022/06/11 07:05:40;;;;;;;7.22;3.98;;;;;;;28.44;26.30;99384.73;1721063;83;21012;-43
2022/06/11 07:08:08;;;;;;;;;;;;;;;28.55;26.27;99390.52;1723509;83;20945;-43
2022/06/11 07:10:37;;;;;;;6.92;4.92;;;;;;;28.65;25.34;99389.17;1720938;82;20158;-43
2022/06/11 07:13:05;;;;;;;5.22;3.75;;;;;;;28.63;25.47;99393.05;1720868;83;20969;-42
2022/06/11 07:15:33;;;;;;;4.83;3.85;;;;;;;28.70;26.06;99396.87;1721045;83;21012;-43
2022/06/11 07:18:05;;;;;;;7.45;4.58;;;;;;;28.80;26.16;99386.40;1720981;83;21579;-43
2022/06/11 07:20:34;;;;;;;6.58;4.72;;;;;;;28.89;25.27;99381.48;1721152;82;21586;-43
2022/06/11 07:23:18;;;;;;;5.12;3.85;;;;;;;28.97;25.79;99385.25;1716684;83;21366;-43
2022/06/11 07:25:46;;;;;;;5.80;3.80;;;;;;;29.06;25.25;99379.55;1712360;82;21383;-43
2022/06/11 07:28:20;;;;;;;8.15;3.62;;;;;;;29.19;24.17;99382.81;1713227;83;21005;-43
2022/06/11 07:30:47;;;;;;;5.85;3.75;;;;;;;29.29;24.12;99379.38;1713476;82;21046;-43
2022/06/11 07:33:18;;;;;;;10.05;3.77;;;;;;;29.42;24.32;99383.28;1713251;83;21021;-43
2022/06/11 07:35:45;;;;;;;6.45;3.55;;;;;;;29.55;24.14;99380.91;1713470;83;21195;-43
2022/06/11 07:38:13;;;;;;;7.05;3.20;;;;;;;29.69;23.69;99382.09;1702883;83;21041;-43
2022/06/11 07:40:40;;;;;;;4.62;2.80;;;;;;;29.80;23.83;99390.00;1713587;82;21072;-43
2022/06/11 07:43:07;;;;;;;4.78;2.60;;;;;;;29.91;23.14;99392.81;1713189;83;21045;-42
2022/06/11 07:45:36;;;;;;;4.62;2.58;;;;;;;30.00;23.13;99389.88;1713285;82;21520;-43
2022/06/11 07:48:05;;;;;;;5.20;2.90;;;;;;;30.09;22.13;99391.88;1713198;83;23126;-43
2022/06/11 07:50:39;;;;;;;5.25;3.40;;;;;;;30.12;21.53;99387.32;1713774;82;21081;-43
2022/06/11 07:53:07;;;;;;;5.87;3.30;;;;;;;30.12;21.04;99392.91;1713346;82;21002;-43
2022/06/11 07:55:35;;;;;;;8.48;3.55;;;;;;;30.09;21.89;99388.31;1713225;82;21552;-43
2022/06/11 07:58:02;;;;;;;5.05;3.62;;;;;;;30.11;21.29;99385.81;1713229;83;21048;-43
2022/06/11 08:00:37;;;;;;;5.62;3.37;;;;;;;30.09;20.78;99383.49;1713272;83;21223;-43
2022/06/11 08:03:06;;;;;;;6.12;3.55;;;;;;;30.06;21.85;99375.33;1713109;82;20974;-43
2022/06/11 08:05:33;;;;;;;7.50;3.95;;;;;;;30.05;22.55;99375.19;1712931;83;21020;-43
2022/06/11 08:08:01;;;;;;;5.25;3.52;;;;;;;30.07;21.94;99374.81;1713270;82;20953;-43
2022/06/11 08:10:30;;;;;;;6.37;3.67;;;;;;;30.11;22.11;99374.63;1713787;82;21013;-43
2022/06/11 08:12:57;;;;;;;4.60;3.60;;;;;;;30.24;22.75;99382.00;1713306;83;21244;-42
2022/06/11 08:15:24;;;;;;;5.70;3.80;;;;;;;30.36;22.04;99376.64;1713330;83;20929;-42
2022/06/11 08:17:52;;;;;;;7.12;3.90;;;;;;;30.45;21.05;99379.26;1713511;82;21548;-42
2022/06/11 08:20:26;;;;;;;6.10;4.47;;;;;;;30.52;21.55;99376.06;1713348;83;21004;-43
2022/06/11 08:22:55;;;;;;;4.62;3.67;;;;;;;30.62;21.43;99380.22;1713297;82;21516;-43
2022/06/11 08:25:24;;;;;;;7.22;3.62;;;;;;;30.71;21.93;99379.89;1713353;82;21209;-42
2022/06/11 08:27:51;;;;;;;5.70;3.77;;;;;;;30.81;21.74;99375.03;1713441;83;21002;-42
2022/06/11 08:30:21;;;;;;;5.50;3.90;;;;;;;30.96;22.27;99370.68;1713378;83;21083;-43
2022/06/11 08:32:49;;;;;;;7.22;4.10;;;;;;;31.07;21.68;99367.99;1713893;83;21650;-42
2022/06/11 08:35:18;;;;;;;6.58;4.05;;;;;;;31.15;21.54;99366.88;1713466;83;21351;-42
2022/06/11 08:37:45;;;;;;;6.67;4.22;;;;;;;31.19;22.32;99368.18;1713431;83;21886;-43
2022/06/11 08:40:32;;;;;;;7.45;3.80;;;;;;;31.31;21.60;99367.63;1705181;84;21045;-43
2022/06/11 08:43:15;;;;;;;5.28;3.85;;;;;;;31.38;20.65;99365.11;1705126;84;20994;-43
2022/06/11 08:45:56;;;;;;;5.60;3.90;;;;;;;31.40;20.69;99373.78;1705248;84;21041;-43
2022/06/11 08:48:49;;;;;;;5.70;3.95;;;;;;;31.44;21.25;99372.14;1705342;83;21573;-43
2022/06/11 08:51:55;;;;;;;8.88;3.77;;;;;;;31.56;21.20;99359.76;1704767;84;21143;-42
2022/06/11 08:54:35;;;;;;;6.03;3.87;;;;;;;31.73;21.06;99366.81;1705136;84;21069;-43
2022/06/11 08:57:40;;;;;;;6.62;4.22;;;;;;;31.84;20.78;99364.06;1705165;84;21135;-43
2022/06/11 09:00:24;;;;;;;8.30;4.10;;;;;;;31.92;20.18;99353.25;1705062;83;21006;-43
2022/06/11 09:03:12;;;;;;;4.95;3.70;;;;;;;31.96;19.98;99357.20;1705277;84;21080;-43
2022/06/11 09:06:03;;;;;;;8.85;3.52;;;;;;;31.99;20.23;99356.20;1705247;84;21315;-43
2022/06/11 09:08:41;;;;;;;7.75;3.90;;;;;;;32.06;19.74;99352.89;1705125;84;21021;-43
2022/06/11 09:11:14;;;;;;;8.63;4.20;;;;;;;32.04;19.86;99358.26;1704791;83;20985;-43
2022/06/11 09:14:22;;;;;;;6.87;3.83;;;;;;;32.10;20.92;99357.64;1705077;83;21053;-43
2022/06/11 09:17:19;;;;;;;3.92;3.50;;;;;;;32.22;20.89;99352.83;1705438;83;21028;-43
2022/06/11 09:20:15;;;;;;;7.10;4.10;;;;;;;32.26;20.82;99349.91;1705382;84;21142;-42
2022/06/11 09:23:09;;;;;;;6.83;4.12;;;;;;;32.31;20.68;99339.33;1706046;83;20985;-43
2022/06/11 09:26:04;;;;;;;6.75;4.33;;;;;;;32.40;20.21;99343.15;1716986;83;21041;-43
2022/06/11 09:28:58;;;;;;;5.37;3.90;;;;;;;32.45;20.40;99350.17;1713042;83;21532;-43
2022/06/11 09:31:34;;;;;;;8.18;3.90;;;;;;;32.52;19.76;99347.50;1717870;83;21076;-42
2022/06/11 09:34:31;;;;;;;5.80;3.87;;;;;;;32.45;19.72;99343.16;1718621;83;21142;-43
2022/06/11 09:37:14;;;;;;;6.62;4.00;;;;;;;32.38;19.83;99345.08;1718519;83;21515;-43
2022/06/11 09:39:46;;;;;;;6.25;4.00;;;;;;;32.30;19.10;99343.40;1718768;83;21019;-43
2022/06/11 09:42:24;;;;;;;7.40;4.12;;;;;;;32.20;19.56;99340.70;1717903;83;20969;-43
2022/06/11 09:45:18;;;;;;;6.33;4.00;;;;;;;32.12;19.66;99341.72;1718188;83;21080;-43
2022/06/11 09:48:08;;;;;;;5.08;3.65;;;;;;;32.04;20.03;99338.63;1718757;83;22089;-42
2022/06/11 09:50:56;;;;;;;;;;;;;;;31.97;20.27;99336.94;1721372;83;20977;-43
2022/06/11 09:53:52;;;;;;;7.03;4.97;;;;;;;31.91;19.20;99336.92;1719127;83;20459;-42
2022/06/11 09:56:30;;;;;;;7.40;4.25;;;;;;;31.83;20.03;99335.89;1691166;83;21084;-43
2022/06/11 09:59:32;;;;;;;6.87;4.25;;;;;;;31.96;20.29;99335.40;1719073;83;21809;-43
2022/06/11 10:02:04;;;;;;;7.28;4.00;;;;;;;32.14;20.14;99332.94;1718717;83;21150;-42
2022/06/11 10:04:35;;;;;;;8.63;3.83;;;;;;;32.31;20.51;99328.73;1716679;83;20980;-43
2022/06/11 10:07:09;;;;;;;7.12;4.40;;;;;;;32.49;21.27;99327.45;1718930;83;21028;-43
2022/06/11 10:09:44;;;;;;;6.28;4.37;;;;;;;32.64;19.46;99329.40;1718539;83;21638;-43
2022/06/11 10:12:33;;;;;;;7.00;4.05;;;;;;;32.74;18.93;99322.25;1718547;83;21813;-43
2022/06/11 10:15:15;;;;;;;10.20;4.62;;;;;;;32.81;19.67;99325.19;1718575;83;21071;-42
2022/06/11 10:17:54;;;;;;;7.17;4.40;;;;;;;32.94;19.26;99324.77;1718714;83;20969;-43
2022/06/11 10:20:32;;;;;;;8.25;4.65;;;;;;;33.07;19.03;99317.97;1718976;83;21048;-43
2022/06/11 10:23:27;;;;;;;6.72;4.22;;;;;;;33.20;19.04;99318.88;1717193;83;21590;-43
2022/06/11 10:26:19;;;;;;;6.30;4.47;;;;;;;33.30;18.48;99319.35;1705106;84;21061;-43
2022/06/11 10:29:26;;;;;;;5.42;4.25;;;;;;;33.42;18.96;99319.42;1705061;84;21219;-43
2022/06/11 10:32:13;;;;;;;10.03;4.17;;;;;;;33.60;18.85;99308.98;1705307;84;20965;-42
2022/06/11 10:34:48;;;;;;;5.30;3.92;;;;;;;33.83;18.64;99313.25;1705300;84;21024;-43
2022/06/11 10:37:46;;;;;;;5.67;4.47;;;;;;;34.02;18.32;99313.39;1705240;84;20977;-43
2022/06/11 10:40:31;;;;;;;8.20;4.33;;;;;;;34.22;18.95;99307.41;1704955;83;21551;-43
2022/06/11 10:43:17;;;;;;;7.72;4.70;;;;;;;34.40;17.59;99309.55;1685253;84;21119;-43
2022/06/11 10:45:46;;;;;;;6.28;4.22;;;;;;;34.62;17.82;99300.13;1704992;84;21308;-43
2022/06/11 10:48:20;;;;;;;6.33;4.53;;;;;;;34.87;17.47;99307.34;1705123;84;21081;-43
2022/06/11 10:50:47;;;;;;;5.62;4.20;;;;;;;35.13;17.27;99303.23;1705393;83;21173;-43
2022/06/11 10:53:37;;;;;;;7.42;4.20;;;;;;;35.39;16.88;99296.40;1708636;83;21120;-43
2022/06/11 10:56:08;;;;;;;5.35;4.08;;;;;;;35.63;16.98;99295.60;1705069;84;21146;-43
2022/06/11 10:59:03;;;;;;;9.03;4.03;;;;;;;35.88;17.25;99294.87;1684136;84;20902;-43
2022/06/11 11:01:42;;;;;;;7.78;4.03;;;;;;;36.13;16.33;99285.80;1705147;84;20941;-43
2022/06/11 11:04:58;;;;;;;6.20;3.80;;;;;;;36.34;16.77;99291.63;1683056;83;21021;-43
2022/06/11 11:07:25;;;;;;;5.37;4.22;;;;;;;36.54;15.76;99287.44;1705181;84;21479;-43
2022/06/11 11:10:00;;;;;;;7.95;4.50;;;;;;;36.77;15.55;99289.23;1705274;84;21142;-43
2022/06/11 11:12:32;;;;;;;6.83;5.00;;;;;;;36.95;15.55;99289.78;1661651;84;20969;-43
2022/06/11 11:15:17;;;;;;;6.00;4.33;;;;;;;37.17;15.35;99285.14;1704527;84;21044;-43
2022/06/11 11:18:17;;;;;;;6.85;4.92;;;;;;;37.28;14.87;99287.72;1705282;84;21611;-43
2022/06/11 11:20:48;;;;;;;6.87;4.87;;;;;;;37.33;15.43;99288.91;1705184;84;20977;-43
2022/06/11 11:23:36;;;;;;;6.35;4.75;;;;;;;37.31;14.98;99285.23;1711852;82;21320;-43
2022/06/11 11:26:21;;;;;;;6.58;4.92;;;;;;;37.44;15.58;99283.03;1713431;83;20926;-43
2022/06/11 11:28:59;;;;;;;6.37;4.53;;;;;;;37.59;16.47;99278.23;1708434;82;21023;-43
2022/06/11 11:31:31;;;;;;;6.92;4.83;;;;;;;37.78;14.98;99281.02;1713194;83;21053;-43
2022/06/11 11:34:03;;;;;;;6.00;4.15;;;;;;;37.99;15.14;99274.66;1713231;83;21049;-43
2022/06/11 11:36:32;;;;;;;5.03;3.58;;;;;;;38.24;15.17;99274.44;1713835;82;21244;-43
2022/06/11 11:39:16;;;;;;;7.03;4.30;;;;;;;38.42;14.46;99274.11;1713241;82;21048;-43
2022/06/11 11:41:52;;;;;;;4.85;3.60;;;;;;;38.59;14.03;99275.86;1713182;82;21263;-43
2022/06/11 11:44:21;;;;;;;6.62;3.95;;;;;;;38.82;13.95;99272.55;1713331;83;20997;-43
2022/06/11 11:46:53;;;;;;;6.83;3.90;;;;;;;39.03;14.09;99263.34;1713516;82;21507;-43
2022/06/11 11:49:27;;;;;;;5.53;3.98;;;;;;;39.38;14.36;99268.17;1713348;82;21423;-43
2022/06/11 11:52:06;;;;;;;5.40;3.83;;;;;;;39.69;13.19;99264.79;1713807;83;21024;-43
2022/06/11 11:54:33;;;;;;;5.53;3.80;;;;;;;39.84;13.61;99257.11;1713169;82;21066;-43
2022/06/11 11:57:04;;;;;;;5.33;3.83;;;;;;;40.09;13.26;99258.73;1713646;83;20974;-43
2022/06/11 11:59:49;;;;;;;5.72;3.40;;;;;;;40.35;12.66;99261.24;1713588;82;21552;-43
2022/06/11 12:02:40;;;;;;;6.42;3.40;;;;;;;40.26;11.87;99254.71;1713601;83;21094;-43
2022/06/11 12:05:28;;;;;;;9.23;4.20;;;;;;;39.88;12.10;99253.89;1713415;82;21089;-43
2022/06/11 12:07:55;;;;;;;5.87;3.95;;;;;;;39.89;12.76;99253.30;1713162;82;21053;-43